Time;durP1;ratioP1;P1;durP2;ratioP2;P2;SDS_P1;SDS_P2;PMS_P1;PMS_P2;Temp;Humidity;BMP_temperature;BMP_pressure;BME280_temperature;BME280_humidity;BME280_pressure;Samples;Min_cycle;Max_cycle;Signal;HPM_P1;HPM_P2
2022/09/16 00:00:31;;;;;;;7.42;4.58;;;;;;;16.70;100.00;93250.48;1644013;86;21581;-58
2022/09/16 00:02:58;;;;;;;3.87;3.37;;;;;;;16.67;100.00;93263.37;1624613;86;21029;-58
2022/09/16 00:05:25;;;;;;;5.62;3.02;;;;;;;16.65;100.00;93262.38;1599277;87;21140;-59
2022/09/16 00:07:53;;;;;;;7.75;3.17;;;;;;;16.60;100.00;93252.09;1638527;86;21018;-58
2022/09/16 00:10:21;;;;;;;4.90;3.40;;;;;;;16.58;100.00;93254.65;1639150;86;21121;-58
2022/09/16 00:12:48;;;;;;;9.38;6.05;;;;;;;16.58;100.00;93250.48;1646441;86;21455;-57
2022/09/16 00:15:15;;;;;;;7.03;3.60;;;;;;;16.59;100.00;93243.03;1641095;87;21023;-57
2022/09/16 00:17:42;;;;;;;7.33;3.90;;;;;;;16.58;100.00;93252.61;1629858;87;21261;-57
2022/09/16 00:20:09;;;;;;;6.17;4.00;;;;;;;16.56;100.00;93251.64;1636524;87;21021;-57
2022/09/16 00:22:36;;;;;;;8.03;4.42;;;;;;;16.54;100.00;93254.20;1636111;87;21086;-57
2022/09/16 00:25:06;;;;;;;9.93;6.08;;;;;;;16.54;100.00;93247.25;1639756;86;20963;-57
2022/09/16 00:27:33;;;;;;;12.43;7.90;;;;;;;16.55;100.00;93252.27;1632540;87;20971;-61
2022/09/16 00:29:59;;;;;;;11.43;6.25;;;;;;;16.56;100.00;93244.05;1632849;86;21245;-58
2022/09/16 00:32:26;;;;;;;9.55;6.78;;;;;;;16.56;100.00;93244.05;1636234;87;20969;-57
2022/09/16 00:34:53;;;;;;;8.50;4.25;;;;;;;16.56;100.00;93248.87;1634316;87;21090;-57
2022/09/16 00:37:20;;;;;;;7.37;4.17;;;;;;;16.55;100.00;93257.82;1640892;86;21104;-58
2022/09/16 00:39:48;;;;;;;11.68;8.55;;;;;;;16.54;100.00;93243.09;1632622;87;21023;-58
2022/09/16 00:42:16;;;;;;;7.92;4.35;;;;;;;16.55;100.00;93248.75;1638057;86;21214;-57
2022/09/16 00:45:04;;;;;;;4.65;3.70;;;;;;;16.52;100.00;93258.87;1638757;87;21605;-57
2022/09/16 00:47:36;;;;;;;7.22;5.33;;;;;;;16.52;100.00;93253.31;1636266;87;21185;-58
2022/09/16 00:50:22;;;;;;;22.37;18.02;;;;;;;16.48;100.00;93251.47;1625661;87;21062;-58
2022/09/16 00:52:49;;;;;;;14.95;11.22;;;;;;;16.49;100.00;93250.81;1638049;87;21749;-57
2022/09/16 00:55:21;;;;;;;17.37;11.22;;;;;;;16.52;100.00;93249.15;1636212;87;21892;-57
2022/09/16 00:57:47;;;;;;;3.90;3.47;;;;;;;16.54;100.00;93253.55;1638030;86;20979;-58
2022/09/16 01:00:14;;;;;;;12.35;7.50;;;;;;;16.52;100.00;93253.97;1599212;87;21097;-59
2022/09/16 01:02:42;;;;;;;6.97;4.58;;;;;;;16.50;100.00;93259.27;1641971;87;21525;-58
2022/09/16 01:05:12;;;;;;;7.92;3.70;;;;;;;16.51;100.00;93259.41;1642307;86;21037;-58
2022/09/16 01:07:48;;;;;;;2.50;1.92;;;;;;;16.52;100.00;93263.69;1639467;87;21826;-57
2022/09/16 01:10:23;;;;;;;17.90;9.30;;;;;;;16.51;100.00;93271.90;1637571;87;20978;-57
2022/09/16 01:13:02;;;;;;;19.12;11.25;;;;;;;16.52;100.00;93270.63;1630182;87;21074;-57
2022/09/16 01:15:41;;;;;;;14.47;9.03;;;;;;;16.56;100.00;93273.20;1636329;86;20983;-58
2022/09/16 01:18:25;;;;;;;7.87;4.08;;;;;;;16.58;100.00;93274.09;1644965;87;21009;-59
2022/09/16 01:21:32;;;;;;;10.78;3.33;;;;;;;16.60;100.00;93282.64;1613420;87;21292;-57
2022/09/16 01:24:50;;;;;;;4.12;2.52;;;;;;;16.61;100.00;93285.53;1634626;87;21011;-58
2022/09/16 01:27:45;;;;;;;5.22;2.70;;;;;;;16.63;100.00;93283.75;1640144;87;21018;-57
2022/09/16 01:30:51;;;;;;;6.45;2.10;;;;;;;16.60;100.00;93278.48;1639743;87;21041;-58
2022/09/16 01:33:48;;;;;;;3.00;2.30;;;;;;;16.60;100.00;93285.42;1635788;87;21017;-57
2022/09/16 01:36:26;;;;;;;5.12;2.75;;;;;;;16.58;100.00;93287.97;1632348;87;21276;-58
2022/09/16 01:39:13;;;;;;;7.72;3.22;;;;;;;16.57;100.00;93295.53;1638210;87;21073;-59
2022/09/16 01:42:21;;;;;;;3.42;2.83;;;;;;;16.58;100.00;93292.87;1630621;87;21226;-57
2022/09/16 01:45:10;;;;;;;4.65;2.75;;;;;;;16.58;100.00;93288.70;1638653;87;21206;-59
2022/09/16 01:48:01;;;;;;;3.08;2.20;;;;;;;16.56;100.00;93280.14;1640661;87;21054;-58
2022/09/16 01:50:49;;;;;;;4.80;2.60;;;;;;;16.59;100.00;93283.92;1636454;87;21285;-59
2022/09/16 01:53:30;;;;;;;2.85;2.62;;;;;;;16.59;100.00;93292.25;1635348;87;21096;-57
2022/09/16 01:56:14;;;;;;;10.30;2.98;;;;;;;16.59;100.00;93295.02;1642216;87;21017;-57
2022/09/16 01:58:58;;;;;;;5.45;2.58;;;;;;;16.57;100.00;93289.23;1640686;87;21506;-59
2022/09/16 02:01:39;;;;;;;6.12;2.42;;;;;;;16.52;100.00;93286.63;1635063;86;21607;-59
2022/09/16 02:04:14;;;;;;;6.15;2.62;;;;;;;16.53;100.00;93293.69;1644147;86;22146;-58
2022/09/16 02:06:42;;;;;;;6.67;2.95;;;;;;;16.54;100.00;93299.35;1622947;87;21073;-58
2022/09/16 02:09:21;;;;;;;7.10;3.02;;;;;;;16.49;100.00;93309.12;1603832;88;21052;-58
2022/09/16 02:11:49;;;;;;;5.78;3.10;;;;;;;16.49;100.00;93307.73;1602815;88;21213;-59
2022/09/16 02:14:29;;;;;;;3.08;2.80;;;;;;;16.49;100.00;93300.79;1602885;88;21142;-58
2022/09/16 02:17:06;;;;;;;7.22;2.35;;;;;;;16.49;100.00;93304.95;1623462;86;22169;-59
2022/09/16 02:19:43;;;;;;;6.53;2.60;;;;;;;16.50;100.00;93309.23;1601361;87;21435;-57
2022/09/16 02:22:17;;;;;;;3.62;2.37;;;;;;;16.49;100.00;93312.66;1634825;86;21140;-58
2022/09/16 02:24:44;;;;;;;2.87;2.27;;;;;;;16.53;100.00;93315.16;1638780;87;21021;-58
2022/09/16 02:27:15;;;;;;;3.60;2.30;;;;;;;16.56;100.00;93325.95;1624789;87;21540;-57
2022/09/16 02:29:49;;;;;;;3.60;2.42;;;;;;;16.56;100.00;93336.33;1637015;86;21619;-58
2022/09/16 02:32:16;;;;;;;5.08;2.35;;;;;;;16.55;100.00;93333.44;1638066;87;21002;-58
2022/09/16 02:34:48;;;;;;;8.38;2.90;;;;;;;16.56;100.00;93332.16;1639216;86;20946;-57
2022/09/16 02:37:23;;;;;;;2.90;2.35;;;;;;;16.53;100.00;93331.81;1644774;87;21002;-58
2022/09/16 02:39:54;;;;;;;4.28;2.30;;;;;;;16.52;100.00;93335.87;1639544;87;21045;-59
2022/09/16 02:42:21;;;;;;;4.60;2.00;;;;;;;16.49;100.00;93341.05;1634987;87;21297;-57
2022/09/16 02:44:47;;;;;;;7.62;2.40;;;;;;;16.44;100.00;93339.08;1632094;87;21014;-57
2022/09/16 02:47:28;;;;;;;3.22;2.10;;;;;;;16.42;100.00;93341.63;1646450;86;21014;-58
2022/09/16 02:50:28;;;;;;;3.80;2.45;;;;;;;16.41;100.00;93344.28;1635590;87;21026;-57
2022/09/16 02:53:02;;;;;;;3.15;2.80;;;;;;;16.44;100.00;93348.80;1635775;87;21429;-58
2022/09/16 02:55:39;;;;;;;5.37;2.50;;;;;;;16.47;100.00;93349.14;1632569;87;21181;-57
2022/09/16 02:58:06;;;;;;;4.92;2.42;;;;;;;16.48;100.00;93356.20;1607584;88;20988;-57
2022/09/16 03:00:38;;;;;;;4.72;2.17;;;;;;;16.51;100.00;93359.35;1602192;88;21009;-59
2022/09/16 03:03:05;;;;;;;2.52;2.33;;;;;;;16.53;100.00;93358.92;1603172;88;21266;-58
2022/09/16 03:05:31;;;;;;;3.98;2.33;;;;;;;16.56;100.00;93364.09;1605493;88;21080;-58
2022/09/16 03:08:02;;;;;;;3.35;1.75;;;;;;;16.56;100.00;93364.83;1616603;88;21151;-57
2022/09/16 03:10:32;;;;;;;7.42;1.62;;;;;;;16.55;100.00;93370.27;1606669;88;21425;-58
2022/09/16 03:13:11;;;;;;;2.67;1.80;;;;;;;16.58;100.00;93367.10;1603831;87;21099;-58
2022/09/16 03:16:07;;;;;;;7.03;2.05;;;;;;;16.57;100.00;93373.27;1607185;88;21086;-57
2022/09/16 03:18:58;;;;;;;8.03;2.17;;;;;;;16.60;100.00;93377.05;1560144;90;21065;-58
2022/09/16 03:21:33;;;;;;;4.33;1.85;;;;;;;16.51;100.00;93371.84;1593829;88;21290;-58
2022/09/16 03:24:17;;;;;;;4.45;1.90;;;;;;;16.48;100.00;93371.47;1587719;88;20993;-59
2022/09/16 03:27:04;;;;;;;4.17;2.00;;;;;;;16.49;100.00;93371.58;1606710;88;21012;-58
2022/09/16 03:29:51;;;;;;;4.08;1.90;;;;;;;16.49;100.00;93379.29;1604636;88;21049;-58
2022/09/16 03:32:23;;;;;;;3.22;1.90;;;;;;;16.53;100.00;93374.84;1599336;88;21450;-58
2022/09/16 03:35:10;;;;;;;;;;;;;;;16.54;100.00;93373.58;1607897;88;21158;-58
2022/09/16 03:37:38;;;;;;;5.15;2.87;;;;;;;16.52;100.00;93376.13;1638572;86;20446;-57
2022/09/16 03:40:13;;;;;;;6.45;3.17;;;;;;;16.49;100.00;93374.36;1637429;86;21085;-58
2022/09/16 03:42:41;;;;;;;5.42;3.20;;;;;;;16.43;100.00;93375.05;1636942;87;21465;-59
2022/09/16 03:45:12;;;;;;;8.95;3.33;;;;;;;16.40;100.00;93379.60;1638904;87;21085;-58
2022/09/16 03:47:39;;;;;;;13.08;2.67;;;;;;;16.37;100.00;93386.84;1641342;86;21104;-58
2022/09/16 03:50:07;;;;;;;4.87;2.67;;;;;;;16.32;100.00;93393.91;1637746;87;20958;-58
2022/09/16 03:52:34;;;;;;;8.43;2.55;;;;;;;16.27;100.00;93385.62;1638667;86;21570;-59
2022/09/16 03:55:01;;;;;;;4.25;2.12;;;;;;;16.28;100.00;93391.94;1635731;86;21077;-58
2022/09/16 03:57:29;;;;;;;6.40;2.30;;;;;;;16.25;100.00;93393.70;1637151;87;20966;-57
2022/09/16 03:59:55;;;;;;;5.55;2.17;;;;;;;16.21;100.00;93400.17;1635935;87;21283;-58
2022/09/16 04:02:24;;;;;;;7.45;2.45;;;;;;;16.18;100.00;93402.59;1640969;87;21034;-58
2022/09/16 04:04:51;;;;;;;2.25;1.90;;;;;;;16.21;100.00;93403.57;1638694;86;21069;-57
2022/09/16 04:07:17;;;;;;;8.95;2.58;;;;;;;16.21;100.00;93420.98;1635942;86;21038;-59
2022/09/16 04:09:44;;;;;;;3.65;1.90;;;;;;;16.19;100.00;93423.53;1643856;86;21528;-58
2022/09/16 04:12:12;;;;;;;2.10;1.90;;;;;;;16.23;100.00;93422.61;1640847;86;22145;-58
2022/09/16 04:14:40;;;;;;;1.70;1.60;;;;;;;16.28;100.00;93429.40;1638895;86;21022;-58
2022/09/16 04:17:06;;;;;;;1.47;1.22;;;;;;;16.29;100.00;93430.26;1632608;87;21002;-57
2022/09/16 04:19:33;;;;;;;0.80;0.80;;;;;;;16.28;100.00;93414.13;1635514;86;21101;-57
2022/09/16 04:22:00;;;;;;;2.75;1.40;;;;;;;16.22;100.00;93415.56;1623346;87;20985;-57
2022/09/16 04:24:26;;;;;;;5.60;1.30;;;;;;;16.17;99.46;93419.75;1636749;87;21253;-59
2022/09/16 04:26:54;;;;;;;1.07;0.93;;;;;;;16.08;99.61;93430.52;1641057;86;21021;-61
2022/09/16 04:29:20;;;;;;;1.87;0.90;;;;;;;16.02;99.28;93431.20;1641943;87;21053;-61
2022/09/16 04:31:47;;;;;;;1.12;1.00;;;;;;;15.99;99.04;93429.45;1626774;87;21077;-60
2022/09/16 04:34:15;;;;;;;0.82;0.82;;;;;;;15.95;98.95;93434.50;1638795;86;21042;-58
2022/09/16 04:36:41;;;;;;;0.70;0.70;;;;;;;15.91;98.16;93443.00;1637396;86;21765;-60
2022/09/16 04:39:09;;;;;;;3.45;0.88;;;;;;;15.85;98.12;93461.05;1637891;86;21045;-61
2022/09/16 04:41:35;;;;;;;2.02;0.88;;;;;;;15.76;97.33;93475.19;1634042;87;21458;-59
2022/09/16 04:44:02;;;;;;;1.40;0.80;;;;;;;15.67;96.98;93503.22;1634164;87;21014;-58
2022/09/16 04:46:29;;;;;;;1.45;0.80;;;;;;;15.62;97.04;93506.77;1638453;87;21924;-60
2022/09/16 04:48:57;;;;;;;5.15;1.30;;;;;;;15.60;97.53;93496.83;1635871;87;22380;-57
2022/09/16 04:51:26;;;;;;;2.60;1.00;;;;;;;15.59;97.83;93512.57;1641923;87;21034;-57
2022/09/16 04:53:54;;;;;;;1.47;1.05;;;;;;;15.57;98.05;93518.61;1634227;86;21006;-58
2022/09/16 04:56:26;;;;;;;0.98;0.98;;;;;;;15.55;98.50;93508.67;1636826;86;21052;-59
2022/09/16 04:58:56;;;;;;;1.10;1.10;;;;;;;15.53;98.80;93509.81;1635102;86;20967;-59
2022/09/16 05:01:29;;;;;;;1.52;1.12;;;;;;;15.53;99.22;93508.42;1625570;86;21571;-59
2022/09/16 05:04:01;;;;;;;2.72;1.45;;;;;;;15.50;100.00;93503.90;1634615;86;21117;-60
2022/09/16 05:06:34;;;;;;;1.70;1.60;;;;;;;15.55;100.00;93512.09;1635259;87;21153;-60
2022/09/16 05:09:03;;;;;;;4.78;2.02;;;;;;;15.59;100.00;93525.05;1634504;87;21038;-59
2022/09/16 05:11:32;;;;;;;1.72;1.62;;;;;;;15.58;100.00;93527.05;1641999;87;21061;-60
2022/09/16 05:14:00;;;;;;;1.70;1.60;;;;;;;15.62;100.00;93533.73;1626472;87;21207;-58
2022/09/16 05:16:28;;;;;;;2.60;1.40;;;;;;;15.68;100.00;93531.07;1639318;87;21073;-58
2022/09/16 05:18:57;;;;;;;1.50;1.40;;;;;;;15.72;100.00;93535.72;1625104;87;21466;-61
2022/09/16 05:21:25;;;;;;;1.45;1.32;;;;;;;15.76;100.00;93528.52;1641280;86;21094;-60
2022/09/16 05:23:52;;;;;;;1.60;1.50;;;;;;;15.76;100.00;93541.74;1639584;87;21061;-63
2022/09/16 05:26:22;;;;;;;4.53;1.65;;;;;;;15.78;100.00;93533.70;1638148;87;21260;-59
2022/09/16 05:28:49;;;;;;;1.40;1.30;;;;;;;15.76;100.00;93527.88;1642461;87;21082;-61
2022/09/16 05:31:23;;;;;;;2.87;2.17;;;;;;;15.76;100.00;93529.91;1626553;87;21021;-58
2022/09/16 05:34:01;;;;;;;4.53;2.92;;;;;;;15.77;100.00;93530.77;1634640;85;21129;-60
2022/09/16 05:36:31;;;;;;;9.70;4.87;;;;;;;15.82;100.00;93530.64;1636932;85;21135;-59
2022/09/16 05:38:58;;;;;;;10.58;5.20;;;;;;;15.84;100.00;93538.58;1626177;85;21311;-60
2022/09/16 05:41:25;;;;;;;8.65;3.62;;;;;;;15.87;100.00;93538.20;1641804;85;21117;-58
2022/09/16 05:43:51;;;;;;;4.85;3.08;;;;;;;15.95;100.00;93537.13;1644371;85;21093;-57
2022/09/16 05:46:21;;;;;;;3.90;2.20;;;;;;;16.04;100.00;93541.02;1636001;85;21132;-57
2022/09/16 05:48:48;;;;;;;2.58;1.90;;;;;;;16.16;100.00;93544.50;1665272;85;21081;-56
2022/09/16 05:51:19;;;;;;;4.80;2.02;;;;;;;16.23;100.00;93550.27;1592415;87;21839;-56
2022/09/16 05:53:47;;;;;;;1.80;1.40;;;;;;;16.25;100.00;93538.66;1645678;84;21025;-55
2022/09/16 05:56:16;;;;;;;2.67;1.75;;;;;;;16.28;100.00;93542.54;1653130;85;21090;-59
2022/09/16 05:58:43;;;;;;;2.40;1.82;;;;;;;16.34;100.00;93540.51;1603773;87;21137;-56
2022/09/16 06:01:14;;;;;;;4.37;2.00;;;;;;;16.45;100.00;93543.23;1598168;87;21131;-57
2022/09/16 06:03:42;;;;;;;3.87;2.45;;;;;;;16.52;100.00;93549.00;1625095;86;21862;-55
2022/09/16 06:06:20;;;;;;;4.15;2.30;;;;;;;16.56;100.00;93541.80;1618384;86;21546;-56
2022/09/16 06:08:47;;;;;;;4.12;1.87;;;;;;;16.58;99.37;93550.36;1619260;86;21089;-55
2022/09/16 06:11:14;;;;;;;2.40;2.10;;;;;;;16.62;98.57;93550.83;1637685;85;21995;-54
2022/09/16 06:13:41;;;;;;;2.50;1.70;;;;;;;16.67;98.22;93561.14;1626736;85;21120;-54
2022/09/16 06:16:09;;;;;;;2.95;2.12;;;;;;;16.75;96.99;93567.67;1644403;84;21238;-55
2022/09/16 06:18:37;;;;;;;4.28;2.20;;;;;;;16.75;96.25;93557.95;1648381;85;20931;-55
2022/09/16 06:21:09;;;;;;;3.45;2.00;;;;;;;16.68;94.96;93560.64;1641945;85;21069;-59
2022/09/16 06:23:37;;;;;;;4.40;2.22;;;;;;;16.56;94.62;93552.25;1622382;86;21025;-59
2022/09/16 06:26:08;;;;;;;2.83;2.30;;;;;;;16.49;94.43;93557.59;1639256;85;21096;-56
2022/09/16 06:28:35;;;;;;;3.37;2.58;;;;;;;16.39;94.64;93550.84;1646579;85;21880;-59
2022/09/16 06:31:13;;;;;;;2.75;2.20;;;;;;;16.36;95.33;93557.44;1637818;85;21069;-57
2022/09/16 06:33:42;;;;;;;9.43;3.67;;;;;;;16.35;95.63;93562.86;1643228;85;21506;-57
2022/09/16 06:36:16;;;;;;;12.60;4.37;;;;;;;16.38;95.91;93563.22;1622153;85;21111;-56
2022/09/16 06:38:44;;;;;;;7.87;3.12;;;;;;;16.47;96.33;93571.23;1638249;85;22297;-60
2022/09/16 06:41:13;;;;;;;6.47;2.87;;;;;;;16.57;95.87;93566.25;1633547;85;21113;-55
2022/09/16 06:43:40;;;;;;;5.03;2.40;;;;;;;16.66;95.74;93568.73;1628570;85;21022;-55
2022/09/16 06:46:16;;;;;;;4.33;2.67;;;;;;;16.79;95.85;93573.70;1634519;85;20989;-55
2022/09/16 06:48:46;;;;;;;4.20;2.87;;;;;;;16.92;95.71;93578.78;1639164;85;21915;-55
2022/09/16 06:51:21;;;;;;;2.77;2.27;;;;;;;17.07;95.07;93575.02;1636913;85;21235;-57
2022/09/16 06:53:49;;;;;;;4.15;3.10;;;;;;;17.25;94.15;93581.97;1628806;85;21145;-56
2022/09/16 06:56:18;;;;;;;5.08;3.27;;;;;;;17.38;92.57;93582.11;1631202;85;21068;-57
2022/09/16 06:58:47;;;;;;;4.10;2.80;;;;;;;17.52;91.53;93587.94;1642122;85;21075;-58
2022/09/16 07:01:19;;;;;;;2.70;2.33;;;;;;;17.58;90.14;93581.06;1619992;86;21126;-56
2022/09/16 07:03:48;;;;;;;3.72;2.90;;;;;;;17.60;89.65;93590.25;1636292;85;21610;-56
2022/09/16 07:06:16;;;;;;;5.80;3.45;;;;;;;17.56;89.38;93590.56;1628221;85;21358;-56
2022/09/16 07:08:43;;;;;;;3.80;2.90;;;;;;;17.49;88.76;93597.33;1644671;85;21532;-55
2022/09/16 07:11:18;;;;;;;6.30;2.80;;;;;;;17.43;88.43;93601.54;1642457;86;21050;-57
2022/09/16 07:13:48;;;;;;;6.25;2.47;;;;;;;17.40;88.67;93605.98;1634402;86;21072;-56
2022/09/16 07:16:21;;;;;;;2.85;2.40;;;;;;;17.36;87.74;93599.33;1592915;88;21127;-55
2022/09/16 07:18:54;;;;;;;6.80;2.37;;;;;;;17.29;88.09;93601.23;1586641;88;21165;-59
2022/09/16 07:21:23;;;;;;;;;;;;;;;17.19;88.37;93606.25;1588264;88;21719;-57
2022/09/16 07:23:50;;;;;;;3.25;2.85;;;;;;;17.09;89.34;93609.25;1579977;88;20229;-57
2022/09/16 07:26:21;;;;;;;3.40;2.98;;;;;;;16.99;89.88;93612.20;1616940;86;21097;-55
2022/09/16 07:28:49;;;;;;;4.50;2.95;;;;;;;16.93;90.56;93617.05;1600908;87;21089;-55
2022/09/16 07:31:18;;;;;;;3.83;2.70;;;;;;;16.87;91.21;93617.73;1580053;88;21796;-56
2022/09/16 07:33:47;;;;;;;5.95;3.35;;;;;;;16.88;92.02;93623.41;1585273;88;21137;-56
2022/09/16 07:36:20;;;;;;;4.72;3.42;;;;;;;16.93;92.01;93619.84;1599012;88;21152;-55
2022/09/16 07:38:47;;;;;;;5.47;2.67;;;;;;;16.98;92.58;93607.30;1580824;88;21097;-57
2022/09/16 07:41:18;;;;;;;3.85;2.92;;;;;;;17.12;93.24;93608.20;1569635;89;21044;-57
2022/09/16 07:43:45;;;;;;;3.35;2.95;;;;;;;17.21;93.04;93616.22;1630419;85;21919;-54
2022/09/16 07:46:17;;;;;;;2.77;2.47;;;;;;;17.32;93.01;93614.75;1621965;85;21125;-59
2022/09/16 07:48:45;;;;;;;3.42;2.65;;;;;;;17.39;92.37;93613.59;1650424;85;21034;-59
2022/09/16 07:51:16;;;;;;;3.60;2.47;;;;;;;17.35;91.67;93616.52;1657636;85;21072;-60
2022/09/16 07:53:42;;;;;;;3.02;1.90;;;;;;;17.30;91.62;93610.34;1649165;85;21018;-57
2022/09/16 07:56:14;;;;;;;2.33;2.02;;;;;;;17.25;91.38;93602.81;1628742;86;21253;-57
2022/09/16 07:58:41;;;;;;;2.40;2.05;;;;;;;17.14;91.02;93607.82;1624695;86;22305;-56
2022/09/16 08:01:08;;;;;;;2.40;2.05;;;;;;;17.08;91.49;93603.57;1625287;87;21047;-56
2022/09/16 08:03:36;;;;;;;2.27;2.08;;;;;;;17.06;92.06;93608.24;1624864;87;21230;-60
2022/09/16 08:06:08;;;;;;;2.95;2.20;;;;;;;17.11;92.41;93606.70;1625125;86;21108;-58
2022/09/16 08:08:35;;;;;;;3.17;2.47;;;;;;;17.16;92.38;93611.45;1633456;85;21286;-61
2022/09/16 08:11:02;;;;;;;2.75;2.33;;;;;;;17.23;92.53;93610.89;1654722;85;21046;-55
2022/09/16 08:13:32;;;;;;;2.92;2.15;;;;;;;17.30;93.20;93601.35;1635294;84;21439;-60
2022/09/16 08:16:02;;;;;;;3.22;2.30;;;;;;;17.53;93.84;93602.73;1645702;85;20985;-61
2022/09/16 08:18:29;;;;;;;2.45;1.90;;;;;;;17.76;93.75;93596.30;1629892;85;21025;-58
2022/09/16 08:20:56;;;;;;;2.62;1.52;;;;;;;17.95;92.99;93598.51;1650568;85;21104;-59
2022/09/16 08:23:24;;;;;;;2.47;1.32;;;;;;;18.11;92.16;93608.09;1616893;88;21534;-62
2022/09/16 08:26:00;;;;;;;1.00;1.00;;;;;;;18.18;89.67;93609.66;1619853;87;22474;-60
2022/09/16 08:28:27;;;;;;;1.60;1.50;;;;;;;18.20;88.02;93616.84;1621200;85;21070;-65
2022/09/16 08:30:54;;;;;;;1.52;1.42;;;;;;;18.33;87.19;93615.59;1588967;86;21166;-62
2022/09/16 08:33:24;;;;;;;1.92;1.42;;;;;;;18.57;87.11;93614.14;1572651;89;21189;-63
2022/09/16 08:36:13;;;;;;;1.50;1.10;;;;;;;18.81;87.80;93607.11;1601653;87;21158;-61
2022/09/16 08:38:42;;;;;;;1.40;1.30;;;;;;;19.06;85.71;93598.78;1617120;86;21141;-61
2022/09/16 08:41:44;;;;;;;1.37;1.27;;;;;;;19.23;83.90;93599.29;1645694;85;21048;-58
2022/09/16 08:44:29;;;;;;;1.60;1.50;;;;;;;19.34;82.74;93592.81;1621770;85;21138;-63
2022/09/16 08:47:00;;;;;;;1.77;1.40;;;;;;;19.44;81.82;93597.46;1640731;85;21284;-61
2022/09/16 08:49:41;;;;;;;2.98;1.50;;;;;;;19.47;81.48;93601.20;1641307;86;21489;-66
2022/09/16 08:52:14;;;;;;;1.47;1.25;;;;;;;19.50;79.72;93600.91;1617854;87;22327;-64
2022/09/16 08:54:48;;;;;;;2.00;1.90;;;;;;;19.57;80.27;93595.34;1611527;86;21106;-61
2022/09/16 08:57:19;;;;;;;1.87;1.62;;;;;;;19.73;80.62;93596.45;1617828;86;21050;-59
2022/09/16 08:59:53;;;;;;;4.12;1.60;;;;;;;19.84;79.71;93583.70;1629783;86;21836;-60
2022/09/16 09:02:49;;;;;;;2.50;1.30;;;;;;;19.91;80.07;93576.73;1631809;86;21531;-63
2022/09/16 09:05:40;;;;;;;3.20;1.67;;;;;;;20.02;79.18;93587.72;1636081;86;21536;-61
2022/09/16 09:08:42;;;;;;;1.32;1.15;;;;;;;20.06;77.97;93591.70;1635311;85;21184;-61
2022/09/16 09:11:36;;;;;;;2.25;1.75;;;;;;;19.98;77.13;93593.61;1642894;85;20992;-60
2022/09/16 09:14:34;;;;;;;2.77;2.17;;;;;;;19.99;77.47;93589.53;1626593;84;21252;-59
2022/09/16 09:17:43;;;;;;;3.58;2.75;;;;;;;20.05;77.85;93591.59;1609468;86;21033;-61
2022/09/16 09:20:53;;;;;;;1.85;1.67;;;;;;;20.20;77.19;93595.35;1614534;86;21530;-60
2022/09/16 09:23:34;;;;;;;2.90;1.50;;;;;;;20.34;76.47;93585.69;1636281;86;21005;-64
2022/09/16 09:26:21;;;;;;;1.95;1.40;;;;;;;20.37;76.01;93581.08;1635622;86;20991;-62
2022/09/16 09:29:11;;;;;;;1.55;1.20;;;;;;;20.36;75.22;93580.31;1642879;85;21141;-61
2022/09/16 09:31:55;;;;;;;3.77;1.25;;;;;;;20.43;74.74;93589.45;1645926;85;22014;-62
2022/09/16 09:35:00;;;;;;;2.65;1.40;;;;;;;20.70;75.31;93576.20;1623742;85;21477;-62
2022/09/16 09:37:50;;;;;;;1.77;1.17;;;;;;;20.89;75.23;93583.83;1620892;85;21052;-58
2022/09/16 09:40:51;;;;;;;3.42;1.17;;;;;;;21.02;74.01;93576.78;1635555;85;21116;-58
2022/09/16 09:43:40;;;;;;;6.08;1.30;;;;;;;21.22;73.23;93571.86;1650322;86;21259;-61
2022/09/16 09:46:13;;;;;;;3.55;1.22;;;;;;;21.44;73.60;93576.30;1629345;85;21005;-62
2022/09/16 09:48:50;;;;;;;7.55;2.15;;;;;;;21.62;73.02;93576.01;1642225;85;21045;-60
2022/09/16 09:51:28;;;;;;;1.57;1.00;;;;;;;21.84;70.44;93576.87;1646281;86;21550;-63
2022/09/16 09:54:11;;;;;;;2.80;1.20;;;;;;;21.91;70.02;93582.53;1602251;87;21164;-56
2022/09/16 09:56:46;;;;;;;1.77;1.10;;;;;;;21.84;70.02;93572.67;1607667;86;23050;-58
2022/09/16 09:59:36;;;;;;;1.25;1.15;;;;;;;21.70;70.08;93581.80;1575317;88;21695;-60
2022/09/16 10:02:02;;;;;;;1.45;1.30;;;;;;;21.48;69.75;93578.76;1638479;86;21002;-59
2022/09/16 10:04:36;;;;;;;2.12;1.40;;;;;;;21.18;69.88;93585.44;1627161;86;21105;-59
2022/09/16 10:07:03;;;;;;;1.45;1.35;;;;;;;21.02;70.01;93589.36;1602429;87;21658;-59
2022/09/16 10:09:30;;;;;;;2.98;1.27;;;;;;;20.79;71.02;93593.91;1648335;85;21100;-59
2022/09/16 10:11:59;;;;;;;5.20;1.67;;;;;;;20.62;71.46;93593.51;1610367;86;21147;-59
2022/09/16 10:14:32;;;;;;;5.95;1.65;;;;;;;20.50;72.29;93595.02;1657961;86;20996;-60
2022/09/16 10:17:05;;;;;;;2.12;1.92;;;;;;;20.44;72.66;93591.59;1654281;86;20999;-61
2022/09/16 10:19:34;;;;;;;;;;;;;;;20.33;72.37;93589.77;1651753;86;21092;-62
2022/09/16 10:22:29;;;;;;;2.75;1.92;;;;;;;20.28;73.09;93582.89;1603007;87;21829;-59
2022/09/16 10:25:03;;;;;;;3.37;1.92;;;;;;;20.28;74.30;93589.88;1626123;87;21077;-62
2022/09/16 10:27:37;;;;;;;6.35;2.05;;;;;;;20.35;74.13;93583.66;1628069;87;21144;-59
2022/09/16 10:30:08;;;;;;;1.85;1.45;;;;;;;20.46;74.35;93584.81;1624893;87;21128;-60
2022/09/16 10:32:53;;;;;;;3.72;1.67;;;;;;;20.54;74.22;93573.11;1625358;87;21084;-58
2022/09/16 10:35:28;;;;;;;7.03;2.40;;;;;;;20.58;74.74;93573.53;1623952;87;21600;-60
2022/09/16 10:38:03;;;;;;;2.17;1.98;;;;;;;20.60;74.45;93576.53;1624510;87;21054;-59
2022/09/16 10:40:30;;;;;;;4.58;1.60;;;;;;;20.59;73.67;93574.37;1625251;87;21089;-59
2022/09/16 10:43:02;;;;;;;4.37;1.75;;;;;;;20.57;73.78;93568.56;1632639;86;21073;-61
2022/09/16 10:45:32;;;;;;;1.87;1.70;;;;;;;20.62;74.22;93567.72;1628198;87;21121;-62
2022/09/16 10:48:09;;;;;;;1.87;1.67;;;;;;;20.73;74.26;93573.72;1622280;87;21242;-62
2022/09/16 10:50:36;;;;;;;3.27;2.50;;;;;;;20.82;74.52;93572.62;1627408;87;21140;-60
2022/09/16 10:53:04;;;;;;;2.60;1.77;;;;;;;20.88;74.09;93571.11;1625517;87;21087;-63
2022/09/16 10:55:36;;;;;;;2.35;1.70;;;;;;;20.83;73.94;93574.76;1630646;86;21588;-62
2022/09/16 10:58:18;;;;;;;5.45;1.75;;;;;;;20.76;73.91;93569.84;1627694;86;21055;-61
2022/09/16 11:00:53;;;;;;;4.83;1.85;;;;;;;20.68;74.73;93569.75;1626731;87;21137;-60
2022/09/16 11:03:57;;;;;;;3.95;2.02;;;;;;;20.75;74.79;93573.27;1622029;85;21037;-61
2022/09/16 11:06:48;;;;;;;6.85;2.30;;;;;;;20.88;74.13;93573.27;1628034;85;21030;-60
2022/09/16 11:09:55;;;;;;;2.35;2.15;;;;;;;21.00;73.27;93562.59;1626413;85;21124;-59
2022/09/16 11:12:46;;;;;;;7.58;2.98;;;;;;;21.11;73.35;93566.55;1591340;88;21419;-59
2022/09/16 11:15:38;;;;;;;3.47;2.02;;;;;;;21.44;72.02;93567.90;1598598;88;21150;-61
2022/09/16 11:18:49;;;;;;;2.92;2.35;;;;;;;21.73;71.58;93570.14;1601340;86;27821;-59
2022/09/16 11:21:30;;;;;;;10.48;6.15;;;;;;;21.96;69.70;93566.23;1576866;88;21564;-60
2022/09/16 11:24:24;;;;;;;8.05;4.45;;;;;;;22.13;66.79;93563.73;1597772;87;21137;-61
2022/09/16 11:27:22;;;;;;;2.87;2.20;;;;;;;22.17;60.22;93552.92;1628454;85;21074;-59
2022/09/16 11:29:55;;;;;;;2.60;1.92;;;;;;;22.22;56.21;93556.22;1570981;88;21213;-59
2022/09/16 11:32:39;;;;;;;4.67;2.25;;;;;;;22.31;53.10;93549.45;1618338;88;21097;-58
2022/09/16 11:35:52;;;;;;;6.80;3.05;;;;;;;22.34;53.44;93552.58;1587765;89;21130;-62
2022/09/16 11:38:43;;;;;;;7.15;2.52;;;;;;;22.34;52.37;93556.02;1637781;87;21586;-62
2022/09/16 11:41:36;;;;;;;3.90;2.35;;;;;;;22.28;51.76;93565.23;1631697;86;21543;-64
2022/09/16 11:44:55;;;;;;;8.35;4.60;;;;;;;22.18;51.60;93562.83;1634692;86;21184;-64
2022/09/16 11:47:39;;;;;;;3.10;2.40;;;;;;;22.18;52.22;93562.19;1620345;86;21141;-64
2022/09/16 11:50:26;;;;;;;6.60;2.80;;;;;;;22.26;52.17;93564.38;1618523;86;21093;-64
2022/09/16 11:53:41;;;;;;;5.08;3.20;;;;;;;22.29;53.20;93562.53;1671917;84;21126;-59
2022/09/16 11:56:40;;;;;;;7.53;2.52;;;;;;;22.25;51.60;93564.28;1613100;87;21606;-63
2022/09/16 11:59:29;;;;;;;8.03;4.37;;;;;;;22.20;50.79;93557.42;1613393;87;21249;-62
2022/09/16 12:02:16;;;;;;;6.67;3.27;;;;;;;22.20;51.84;93560.22;1602783;88;21052;-62
2022/09/16 12:04:52;;;;;;;6.22;3.58;;;;;;;22.27;51.85;93559.53;1615038;86;21570;-61
2022/09/16 12:07:43;;;;;;;3.55;2.50;;;;;;;22.33;53.51;93553.85;1639119;85;21129;-62